<?xml version="1.0" encoding="UTF-8" standalone="no" ?>
<gpx xmlns="http://www.topografix.com/GPX/1/1" xmlns:xsi="http://www.w3.org/2001/XMLSchema-instance" xsi:schemaLocation="http://www.topografix.com/GPX/1/1 http://www.topografix.com/GPX/1/1/gpx.xsd" version="1.1" creator="VisuGPX - https://www.visugpx.com">
  <metadata>
    <name>Course à pied dans l'après-midi</name>
    <desc><![CDATA[Après ma première journée d'observation stagiaire AMM 🧐]]></desc>
  </metadata>
  <trk>
    <name><![CDATA[Course à pied dans l'après-midi_1]]></name>
    <trkseg>
      <trkpt lat="46.0772" lon="6.71882">
        <ele>697.5</ele>
        <time>2023-08-14T15:51:22Z</time>
      </trkpt>
      <trkpt lat="46.07719" lon="6.71882">
        <ele>697.6</ele>
        <time>2023-08-14T15:51:23Z</time>
      </trkpt>
      <trkpt lat="46.07702" lon="6.71893">
        <ele>698.7</ele>
        <time>2023-08-14T15:51:31Z</time>
      </trkpt>
      <trkpt lat="46.07684" lon="6.71901">
        <ele>699.8</ele>
        <time>2023-08-14T15:51:39Z</time>
      </trkpt>
      <trkpt lat="46.07667" lon="6.71909">
        <ele>700.2</ele>
        <time>2023-08-14T15:51:47Z</time>
      </trkpt>
      <trkpt lat="46.0765" lon="6.71894">
        <ele>700.7</ele>
        <time>2023-08-14T15:51:55Z</time>
      </trkpt>
      <trkpt lat="46.07635" lon="6.71875">
        <ele>701.2</ele>
        <time>2023-08-14T15:52:04Z</time>
      </trkpt>
      <trkpt lat="46.07618" lon="6.7186">
        <ele>701.3</ele>
        <time>2023-08-14T15:52:12Z</time>
      </trkpt>
      <trkpt lat="46.07603" lon="6.71846">
        <ele>701.3</ele>
        <time>2023-08-14T15:52:20Z</time>
      </trkpt>
      <trkpt lat="46.07599" lon="6.71845">
        <ele>701.3</ele>
        <time>2023-08-14T15:52:22Z</time>
      </trkpt>
      <trkpt lat="46.07596" lon="6.71851">
        <ele>701.3</ele>
        <time>2023-08-14T15:52:24Z</time>
      </trkpt>
      <trkpt lat="46.0759" lon="6.71876">
        <ele>701.7</ele>
        <time>2023-08-14T15:52:31Z</time>
      </trkpt>
      <trkpt lat="46.07584" lon="6.71901">
        <ele>702.6</ele>
        <time>2023-08-14T15:52:39Z</time>
      </trkpt>
      <trkpt lat="46.07578" lon="6.71927">
        <ele>703.7</ele>
        <time>2023-08-14T15:52:47Z</time>
      </trkpt>
      <trkpt lat="46.07573" lon="6.71953">
        <ele>704.3</ele>
        <time>2023-08-14T15:52:55Z</time>
      </trkpt>
      <trkpt lat="46.0757" lon="6.71981">
        <ele>704.5</ele>
        <time>2023-08-14T15:53:03Z</time>
      </trkpt>
      <trkpt lat="46.07564" lon="6.72007">
        <ele>704.9</ele>
        <time>2023-08-14T15:53:11Z</time>
      </trkpt>
      <trkpt lat="46.07561" lon="6.72033">
        <ele>705.7</ele>
        <time>2023-08-14T15:53:20Z</time>
      </trkpt>
      <trkpt lat="46.07551" lon="6.72056">
        <ele>707.2</ele>
        <time>2023-08-14T15:53:29Z</time>
      </trkpt>
      <trkpt lat="46.07539" lon="6.72078">
        <ele>709.5</ele>
        <time>2023-08-14T15:53:38Z</time>
      </trkpt>
      <trkpt lat="46.07527" lon="6.72098">
        <ele>711.8</ele>
        <time>2023-08-14T15:53:47Z</time>
      </trkpt>
      <trkpt lat="46.07517" lon="6.72122">
        <ele>714.2</ele>
        <time>2023-08-14T15:53:57Z</time>
      </trkpt>
      <trkpt lat="46.07507" lon="6.72146">
        <ele>716.7</ele>
        <time>2023-08-14T15:54:10Z</time>
      </trkpt>
      <trkpt lat="46.07496" lon="6.72167">
        <ele>719.2</ele>
        <time>2023-08-14T15:54:22Z</time>
      </trkpt>
      <trkpt lat="46.07482" lon="6.72186">
        <ele>721.2</ele>
        <time>2023-08-14T15:54:31Z</time>
      </trkpt>
      <trkpt lat="46.07465" lon="6.72196">
        <ele>722.2</ele>
        <time>2023-08-14T15:54:38Z</time>
      </trkpt>
      <trkpt lat="46.07449" lon="6.72211">
        <ele>723.1</ele>
        <time>2023-08-14T15:54:45Z</time>
      </trkpt>
      <trkpt lat="46.07433" lon="6.72225">
        <ele>724.6</ele>
        <time>2023-08-14T15:54:52Z</time>
      </trkpt>
      <trkpt lat="46.07424" lon="6.72235">
        <ele>727.1</ele>
        <time>2023-08-14T15:54:58Z</time>
      </trkpt>
      <trkpt lat="46.07423" lon="6.72234">
        <ele>727.5</ele>
        <time>2023-08-14T15:55:00Z</time>
      </trkpt>
      <trkpt lat="46.0743" lon="6.72209">
        <ele>732.3</ele>
        <time>2023-08-14T15:55:16Z</time>
      </trkpt>
      <trkpt lat="46.07427" lon="6.72198">
        <ele>734.4</ele>
        <time>2023-08-14T15:55:23Z</time>
      </trkpt>
      <trkpt lat="46.0742" lon="6.72173">
        <ele>739.2</ele>
        <time>2023-08-14T15:55:36Z</time>
      </trkpt>
      <trkpt lat="46.07417" lon="6.72172">
        <ele>739.9</ele>
        <time>2023-08-14T15:55:40Z</time>
      </trkpt>
      <trkpt lat="46.07413" lon="6.72178">
        <ele>741.3</ele>
        <time>2023-08-14T15:55:48Z</time>
      </trkpt>
      <trkpt lat="46.07411" lon="6.72177">
        <ele>741.9</ele>
        <time>2023-08-14T15:55:52Z</time>
      </trkpt>
      <trkpt lat="46.07395" lon="6.72161">
        <ele>747.4</ele>
        <time>2023-08-14T15:56:06Z</time>
      </trkpt>
      <trkpt lat="46.07383" lon="6.72158">
        <ele>751.1</ele>
        <time>2023-08-14T15:56:15Z</time>
      </trkpt>
      <trkpt lat="46.0738" lon="6.7216">
        <ele>752.2</ele>
        <time>2023-08-14T15:56:18Z</time>
      </trkpt>
      <trkpt lat="46.0737" lon="6.72172">
        <ele>756.5</ele>
        <time>2023-08-14T15:56:28Z</time>
      </trkpt>
      <trkpt lat="46.07368" lon="6.7217">
        <ele>757.3</ele>
        <time>2023-08-14T15:56:30Z</time>
      </trkpt>
      <trkpt lat="46.07364" lon="6.72163">
        <ele>759.2</ele>
        <time>2023-08-14T15:56:36Z</time>
      </trkpt>
      <trkpt lat="46.07351" lon="6.72146">
        <ele>764.5</ele>
        <time>2023-08-14T15:56:54Z</time>
      </trkpt>
      <trkpt lat="46.07349" lon="6.72137">
        <ele>766.4</ele>
        <time>2023-08-14T15:57:00Z</time>
      </trkpt>
      <trkpt lat="46.07347" lon="6.72111">
        <ele>770.6</ele>
        <time>2023-08-14T15:57:12Z</time>
      </trkpt>
      <trkpt lat="46.07348" lon="6.72106">
        <ele>771.1</ele>
        <time>2023-08-14T15:57:14Z</time>
      </trkpt>
      <trkpt lat="46.07356" lon="6.7208">
        <ele>773.6</ele>
        <time>2023-08-14T15:57:24Z</time>
      </trkpt>
      <trkpt lat="46.07361" lon="6.72056">
        <ele>775</ele>
        <time>2023-08-14T15:57:34Z</time>
      </trkpt>
      <trkpt lat="46.07366" lon="6.7203">
        <ele>776.6</ele>
        <time>2023-08-14T15:57:43Z</time>
      </trkpt>
      <trkpt lat="46.07374" lon="6.72005">
        <ele>778.9</ele>
        <time>2023-08-14T15:57:51Z</time>
      </trkpt>
      <trkpt lat="46.07374" lon="6.71977">
        <ele>781.4</ele>
        <time>2023-08-14T15:58:02Z</time>
      </trkpt>
      <trkpt lat="46.07367" lon="6.71952">
        <ele>783.8</ele>
        <time>2023-08-14T15:58:10Z</time>
      </trkpt>
      <trkpt lat="46.07355" lon="6.71932">
        <ele>786.8</ele>
        <time>2023-08-14T15:58:20Z</time>
      </trkpt>
      <trkpt lat="46.07337" lon="6.71932">
        <ele>788</ele>
        <time>2023-08-14T15:58:31Z</time>
      </trkpt>
      <trkpt lat="46.07321" lon="6.71943">
        <ele>791.8</ele>
        <time>2023-08-14T15:58:51Z</time>
      </trkpt>
      <trkpt lat="46.07303" lon="6.71945">
        <ele>796.7</ele>
        <time>2023-08-14T15:59:07Z</time>
      </trkpt>
      <trkpt lat="46.07284" lon="6.71943">
        <ele>802.8</ele>
        <time>2023-08-14T15:59:21Z</time>
      </trkpt>
      <trkpt lat="46.07279" lon="6.7194">
        <ele>804.3</ele>
        <time>2023-08-14T15:59:25Z</time>
      </trkpt>
      <trkpt lat="46.07276" lon="6.71939">
        <ele>805.5</ele>
        <time>2023-08-14T15:59:28Z</time>
      </trkpt>
      <trkpt lat="46.07273" lon="6.71937">
        <ele>806.6</ele>
        <time>2023-08-14T15:59:32Z</time>
      </trkpt>
      <trkpt lat="46.0727" lon="6.71935">
        <ele>807.6</ele>
        <time>2023-08-14T15:59:36Z</time>
      </trkpt>
      <trkpt lat="46.07268" lon="6.71935">
        <ele>808.2</ele>
        <time>2023-08-14T15:59:39Z</time>
      </trkpt>
      <trkpt lat="46.07266" lon="6.71933">
        <ele>808.9</ele>
        <time>2023-08-14T15:59:42Z</time>
      </trkpt>
      <trkpt lat="46.07263" lon="6.71929">
        <ele>810.3</ele>
        <time>2023-08-14T15:59:46Z</time>
      </trkpt>
      <trkpt lat="46.07262" lon="6.71928">
        <ele>810.7</ele>
        <time>2023-08-14T15:59:47Z</time>
      </trkpt>
      <trkpt lat="46.07259" lon="6.71928">
        <ele>811.6</ele>
        <time>2023-08-14T15:59:49Z</time>
      </trkpt>
      <trkpt lat="46.07241" lon="6.71923">
        <ele>817.5</ele>
        <time>2023-08-14T15:59:59Z</time>
      </trkpt>
      <trkpt lat="46.07222" lon="6.71927">
        <ele>820</ele>
        <time>2023-08-14T16:00:08Z</time>
      </trkpt>
      <trkpt lat="46.07203" lon="6.71925">
        <ele>821.3</ele>
        <time>2023-08-14T16:00:15Z</time>
      </trkpt>
      <trkpt lat="46.07185" lon="6.71923">
        <ele>822.1</ele>
        <time>2023-08-14T16:00:22Z</time>
      </trkpt>
      <trkpt lat="46.07165" lon="6.71929">
        <ele>821.9</ele>
        <time>2023-08-14T16:00:29Z</time>
      </trkpt>
      <trkpt lat="46.07146" lon="6.71939">
        <ele>821.7</ele>
        <time>2023-08-14T16:00:37Z</time>
      </trkpt>
      <trkpt lat="46.0713" lon="6.71955">
        <ele>822.6</ele>
        <time>2023-08-14T16:00:44Z</time>
      </trkpt>
      <trkpt lat="46.07122" lon="6.71979">
        <ele>824</ele>
        <time>2023-08-14T16:00:51Z</time>
      </trkpt>
      <trkpt lat="46.0712" lon="6.72008">
        <ele>826.1</ele>
        <time>2023-08-14T16:00:59Z</time>
      </trkpt>
      <trkpt lat="46.07115" lon="6.72034">
        <ele>828.1</ele>
        <time>2023-08-14T16:01:07Z</time>
      </trkpt>
      <trkpt lat="46.07114" lon="6.72061">
        <ele>828.5</ele>
        <time>2023-08-14T16:01:14Z</time>
      </trkpt>
      <trkpt lat="46.07109" lon="6.72087">
        <ele>828.8</ele>
        <time>2023-08-14T16:01:22Z</time>
      </trkpt>
      <trkpt lat="46.07099" lon="6.72111">
        <ele>829.1</ele>
        <time>2023-08-14T16:01:29Z</time>
      </trkpt>
      <trkpt lat="46.07091" lon="6.72135">
        <ele>829.2</ele>
        <time>2023-08-14T16:01:35Z</time>
      </trkpt>
      <trkpt lat="46.07087" lon="6.72164">
        <ele>829</ele>
        <time>2023-08-14T16:01:42Z</time>
      </trkpt>
      <trkpt lat="46.07086" lon="6.72193">
        <ele>828.8</ele>
        <time>2023-08-14T16:01:49Z</time>
      </trkpt>
      <trkpt lat="46.07085" lon="6.72223">
        <ele>829.1</ele>
        <time>2023-08-14T16:01:56Z</time>
      </trkpt>
      <trkpt lat="46.0708" lon="6.7225">
        <ele>830.1</ele>
        <time>2023-08-14T16:02:03Z</time>
      </trkpt>
      <trkpt lat="46.07071" lon="6.72274">
        <ele>832.5</ele>
        <time>2023-08-14T16:02:13Z</time>
      </trkpt>
      <trkpt lat="46.07069" lon="6.723">
        <ele>836.2</ele>
        <time>2023-08-14T16:02:26Z</time>
      </trkpt>
      <trkpt lat="46.07068" lon="6.72326">
        <ele>840.6</ele>
        <time>2023-08-14T16:02:40Z</time>
      </trkpt>
      <trkpt lat="46.07067" lon="6.72335">
        <ele>842.4</ele>
        <time>2023-08-14T16:02:46Z</time>
      </trkpt>
      <trkpt lat="46.07074" lon="6.72359">
        <ele>847.4</ele>
        <time>2023-08-14T16:03:03Z</time>
      </trkpt>
      <trkpt lat="46.07075" lon="6.72368">
        <ele>849.4</ele>
        <time>2023-08-14T16:03:10Z</time>
      </trkpt>
      <trkpt lat="46.07075" lon="6.72371">
        <ele>849.9</ele>
        <time>2023-08-14T16:03:12Z</time>
      </trkpt>
      <trkpt lat="46.07077" lon="6.72394">
        <ele>854.2</ele>
        <time>2023-08-14T16:03:26Z</time>
      </trkpt>
      <trkpt lat="46.07089" lon="6.72415">
        <ele>857.9</ele>
        <time>2023-08-14T16:03:41Z</time>
      </trkpt>
      <trkpt lat="46.07095" lon="6.7244">
        <ele>861.7</ele>
        <time>2023-08-14T16:03:53Z</time>
      </trkpt>
      <trkpt lat="46.07102" lon="6.72464">
        <ele>866.2</ele>
        <time>2023-08-14T16:04:05Z</time>
      </trkpt>
      <trkpt lat="46.07098" lon="6.72491">
        <ele>870.4</ele>
        <time>2023-08-14T16:04:17Z</time>
      </trkpt>
      <trkpt lat="46.07095" lon="6.72517">
        <ele>874.3</ele>
        <time>2023-08-14T16:04:31Z</time>
      </trkpt>
      <trkpt lat="46.07087" lon="6.72542">
        <ele>876.6</ele>
        <time>2023-08-14T16:04:41Z</time>
      </trkpt>
      <trkpt lat="46.07081" lon="6.72567">
        <ele>878.9</ele>
        <time>2023-08-14T16:04:52Z</time>
      </trkpt>
      <trkpt lat="46.07072" lon="6.72587">
        <ele>882.6</ele>
        <time>2023-08-14T16:05:05Z</time>
      </trkpt>
      <trkpt lat="46.07067" lon="6.72587">
        <ele>883.9</ele>
        <time>2023-08-14T16:05:10Z</time>
      </trkpt>
      <trkpt lat="46.07066" lon="6.72588">
        <ele>884.3</ele>
        <time>2023-08-14T16:05:11Z</time>
      </trkpt>
      <trkpt lat="46.07058" lon="6.72589">
        <ele>888</ele>
        <time>2023-08-14T16:05:16Z</time>
      </trkpt>
      <trkpt lat="46.07053" lon="6.72593">
        <ele>888.8</ele>
        <time>2023-08-14T16:05:20Z</time>
      </trkpt>
      <trkpt lat="46.07042" lon="6.72609">
        <ele>890.4</ele>
        <time>2023-08-14T16:05:30Z</time>
      </trkpt>
      <trkpt lat="46.07021" lon="6.7261">
        <ele>891.6</ele>
        <time>2023-08-14T16:05:38Z</time>
      </trkpt>
      <trkpt lat="46.07002" lon="6.72603">
        <ele>892.5</ele>
        <time>2023-08-14T16:05:45Z</time>
      </trkpt>
      <trkpt lat="46.06984" lon="6.72606">
        <ele>893.1</ele>
        <time>2023-08-14T16:05:54Z</time>
      </trkpt>
      <trkpt lat="46.06981" lon="6.72608">
        <ele>893.2</ele>
        <time>2023-08-14T16:05:56Z</time>
      </trkpt>
      <trkpt lat="46.06962" lon="6.72613">
        <ele>895.2</ele>
        <time>2023-08-14T16:06:07Z</time>
      </trkpt>
      <trkpt lat="46.06946" lon="6.72602">
        <ele>900.2</ele>
        <time>2023-08-14T16:06:22Z</time>
      </trkpt>
      <trkpt lat="46.06943" lon="6.72604">
        <ele>901.3</ele>
        <time>2023-08-14T16:06:26Z</time>
      </trkpt>
      <trkpt lat="46.06941" lon="6.72607">
        <ele>902.2</ele>
        <time>2023-08-14T16:06:28Z</time>
      </trkpt>
      <trkpt lat="46.06941" lon="6.72613">
        <ele>903.6</ele>
        <time>2023-08-14T16:06:33Z</time>
      </trkpt>
      <trkpt lat="46.06941" lon="6.72616">
        <ele>904.2</ele>
        <time>2023-08-14T16:06:36Z</time>
      </trkpt>
      <trkpt lat="46.06942" lon="6.72618">
        <ele>904.7</ele>
        <time>2023-08-14T16:06:38Z</time>
      </trkpt>
      <trkpt lat="46.06945" lon="6.72644">
        <ele>910.1</ele>
        <time>2023-08-14T16:06:54Z</time>
      </trkpt>
      <trkpt lat="46.06945" lon="6.72646">
        <ele>910.5</ele>
        <time>2023-08-14T16:06:55Z</time>
      </trkpt>
      <trkpt lat="46.06945" lon="6.7265">
        <ele>911.5</ele>
        <time>2023-08-14T16:06:58Z</time>
      </trkpt>
      <trkpt lat="46.06943" lon="6.72662">
        <ele>913.9</ele>
        <time>2023-08-14T16:07:06Z</time>
      </trkpt>
      <trkpt lat="46.06946" lon="6.72683">
        <ele>918.3</ele>
        <time>2023-08-14T16:07:17Z</time>
      </trkpt>
      <trkpt lat="46.06941" lon="6.72702">
        <ele>922.2</ele>
        <time>2023-08-14T16:07:33Z</time>
      </trkpt>
      <trkpt lat="46.06938" lon="6.727">
        <ele>923.1</ele>
        <time>2023-08-14T16:07:37Z</time>
      </trkpt>
      <trkpt lat="46.06919" lon="6.72698">
        <ele>927.5</ele>
        <time>2023-08-14T16:07:48Z</time>
      </trkpt>
      <trkpt lat="46.06904" lon="6.72717">
        <ele>930.2</ele>
        <time>2023-08-14T16:08:02Z</time>
      </trkpt>
      <trkpt lat="46.06888" lon="6.72728">
        <ele>932.6</ele>
        <time>2023-08-14T16:08:14Z</time>
      </trkpt>
      <trkpt lat="46.06871" lon="6.72737">
        <ele>935.8</ele>
        <time>2023-08-14T16:08:26Z</time>
      </trkpt>
      <trkpt lat="46.06866" lon="6.7274">
        <ele>936.7</ele>
        <time>2023-08-14T16:08:30Z</time>
      </trkpt>
      <trkpt lat="46.06852" lon="6.72747">
        <ele>940.1</ele>
        <time>2023-08-14T16:08:43Z</time>
      </trkpt>
      <trkpt lat="46.06851" lon="6.72749">
        <ele>940.6</ele>
        <time>2023-08-14T16:08:46Z</time>
      </trkpt>
      <trkpt lat="46.06832" lon="6.72747">
        <ele>945.4</ele>
        <time>2023-08-14T16:08:58Z</time>
      </trkpt>
      <trkpt lat="46.06814" lon="6.72739">
        <ele>949.7</ele>
        <time>2023-08-14T16:09:12Z</time>
      </trkpt>
      <trkpt lat="46.06797" lon="6.72749">
        <ele>952.5</ele>
        <time>2023-08-14T16:09:21Z</time>
      </trkpt>
      <trkpt lat="46.06781" lon="6.72763">
        <ele>953.6</ele>
        <time>2023-08-14T16:09:28Z</time>
      </trkpt>
      <trkpt lat="46.06767" lon="6.72785">
        <ele>955</ele>
        <time>2023-08-14T16:09:37Z</time>
      </trkpt>
      <trkpt lat="46.06757" lon="6.72809">
        <ele>957</ele>
        <time>2023-08-14T16:09:45Z</time>
      </trkpt>
      <trkpt lat="46.06745" lon="6.72829">
        <ele>959.1</ele>
        <time>2023-08-14T16:09:58Z</time>
      </trkpt>
      <trkpt lat="46.06731" lon="6.72847">
        <ele>961.1</ele>
        <time>2023-08-14T16:10:06Z</time>
      </trkpt>
      <trkpt lat="46.06713" lon="6.72847">
        <ele>962.6</ele>
        <time>2023-08-14T16:10:16Z</time>
      </trkpt>
      <trkpt lat="46.06698" lon="6.72863">
        <ele>963.7</ele>
        <time>2023-08-14T16:10:23Z</time>
      </trkpt>
      <trkpt lat="46.06683" lon="6.72879">
        <ele>964.7</ele>
        <time>2023-08-14T16:10:31Z</time>
      </trkpt>
      <trkpt lat="46.06664" lon="6.72877">
        <ele>966</ele>
        <time>2023-08-14T16:10:39Z</time>
      </trkpt>
      <trkpt lat="46.06646" lon="6.72871">
        <ele>967.7</ele>
        <time>2023-08-14T16:10:46Z</time>
      </trkpt>
      <trkpt lat="46.06625" lon="6.72872">
        <ele>969.7</ele>
        <time>2023-08-14T16:10:55Z</time>
      </trkpt>
      <trkpt lat="46.06606" lon="6.72878">
        <ele>971.5</ele>
        <time>2023-08-14T16:11:03Z</time>
      </trkpt>
      <trkpt lat="46.06589" lon="6.72889">
        <ele>973.4</ele>
        <time>2023-08-14T16:11:13Z</time>
      </trkpt>
      <trkpt lat="46.06571" lon="6.72902">
        <ele>975.2</ele>
        <time>2023-08-14T16:11:22Z</time>
      </trkpt>
      <trkpt lat="46.06554" lon="6.72915">
        <ele>977</ele>
        <time>2023-08-14T16:11:30Z</time>
      </trkpt>
      <trkpt lat="46.06542" lon="6.72935">
        <ele>978.8</ele>
        <time>2023-08-14T16:11:37Z</time>
      </trkpt>
      <trkpt lat="46.06529" lon="6.72955">
        <ele>980.6</ele>
        <time>2023-08-14T16:11:46Z</time>
      </trkpt>
      <trkpt lat="46.06521" lon="6.72979">
        <ele>982.1</ele>
        <time>2023-08-14T16:11:56Z</time>
      </trkpt>
      <trkpt lat="46.06515" lon="6.73004">
        <ele>983.9</ele>
        <time>2023-08-14T16:12:06Z</time>
      </trkpt>
      <trkpt lat="46.06502" lon="6.73023">
        <ele>985.9</ele>
        <time>2023-08-14T16:12:13Z</time>
      </trkpt>
      <trkpt lat="46.06488" lon="6.7304">
        <ele>988</ele>
        <time>2023-08-14T16:12:20Z</time>
      </trkpt>
      <trkpt lat="46.06476" lon="6.73062">
        <ele>990.2</ele>
        <time>2023-08-14T16:12:28Z</time>
      </trkpt>
      <trkpt lat="46.06462" lon="6.73077">
        <ele>991.9</ele>
        <time>2023-08-14T16:12:34Z</time>
      </trkpt>
      <trkpt lat="46.06456" lon="6.73076">
        <ele>992.6</ele>
        <time>2023-08-14T16:12:35Z</time>
      </trkpt>
      <trkpt lat="46.06439" lon="6.7306">
        <ele>994.9</ele>
        <time>2023-08-14T16:12:44Z</time>
      </trkpt>
      <trkpt lat="46.06427" lon="6.7304">
        <ele>997.8</ele>
        <time>2023-08-14T16:12:53Z</time>
      </trkpt>
      <trkpt lat="46.06419" lon="6.73015">
        <ele>1000.8</ele>
        <time>2023-08-14T16:13:04Z</time>
      </trkpt>
      <trkpt lat="46.0641" lon="6.72992">
        <ele>1003.1</ele>
        <time>2023-08-14T16:13:14Z</time>
      </trkpt>
      <trkpt lat="46.06391" lon="6.72996">
        <ele>1005</ele>
        <time>2023-08-14T16:13:24Z</time>
      </trkpt>
      <trkpt lat="46.06371" lon="6.72995">
        <ele>1006.6</ele>
        <time>2023-08-14T16:13:33Z</time>
      </trkpt>
      <trkpt lat="46.06355" lon="6.72984">
        <ele>1008.1</ele>
        <time>2023-08-14T16:13:40Z</time>
      </trkpt>
      <trkpt lat="46.06337" lon="6.72973">
        <ele>1009.9</ele>
        <time>2023-08-14T16:13:50Z</time>
      </trkpt>
      <trkpt lat="46.06319" lon="6.72968">
        <ele>1012.2</ele>
        <time>2023-08-14T16:13:59Z</time>
      </trkpt>
      <trkpt lat="46.06302" lon="6.72954">
        <ele>1014.5</ele>
        <time>2023-08-14T16:14:08Z</time>
      </trkpt>
      <trkpt lat="46.06285" lon="6.72945">
        <ele>1016.9</ele>
        <time>2023-08-14T16:14:18Z</time>
      </trkpt>
      <trkpt lat="46.06266" lon="6.72937">
        <ele>1019.7</ele>
        <time>2023-08-14T16:14:29Z</time>
      </trkpt>
      <trkpt lat="46.0625" lon="6.72925">
        <ele>1022.4</ele>
        <time>2023-08-14T16:14:43Z</time>
      </trkpt>
      <trkpt lat="46.06247" lon="6.72924">
        <ele>1023.1</ele>
        <time>2023-08-14T16:14:49Z</time>
      </trkpt>
      <trkpt lat="46.06246" lon="6.72923">
        <ele>1023.1</ele>
        <time>2023-08-14T16:14:51Z</time>
      </trkpt>
      <trkpt lat="46.06236" lon="6.7293">
        <ele>1025.5</ele>
        <time>2023-08-14T16:14:59Z</time>
      </trkpt>
      <trkpt lat="46.06221" lon="6.72943">
        <ele>1029.6</ele>
        <time>2023-08-14T16:15:07Z</time>
      </trkpt>
      <trkpt lat="46.06216" lon="6.72945">
        <ele>1031</ele>
        <time>2023-08-14T16:15:11Z</time>
      </trkpt>
      <trkpt lat="46.06214" lon="6.72947">
        <ele>1031.6</ele>
        <time>2023-08-14T16:15:12Z</time>
      </trkpt>
      <trkpt lat="46.06212" lon="6.72949">
        <ele>1032.2</ele>
        <time>2023-08-14T16:15:15Z</time>
      </trkpt>
      <trkpt lat="46.06197" lon="6.72952">
        <ele>1036.3</ele>
        <time>2023-08-14T16:15:28Z</time>
      </trkpt>
      <trkpt lat="46.06192" lon="6.72954">
        <ele>1037.7</ele>
        <time>2023-08-14T16:15:36Z</time>
      </trkpt>
      <trkpt lat="46.06191" lon="6.72955">
        <ele>1038.1</ele>
        <time>2023-08-14T16:15:37Z</time>
      </trkpt>
      <trkpt lat="46.0619" lon="6.72957">
        <ele>1038.7</ele>
        <time>2023-08-14T16:15:39Z</time>
      </trkpt>
      <trkpt lat="46.06187" lon="6.72959">
        <ele>1039.6</ele>
        <time>2023-08-14T16:15:41Z</time>
      </trkpt>
      <trkpt lat="46.06173" lon="6.72976">
        <ele>1045.3</ele>
        <time>2023-08-14T16:15:57Z</time>
      </trkpt>
      <trkpt lat="46.06172" lon="6.72977">
        <ele>1045.6</ele>
        <time>2023-08-14T16:15:58Z</time>
      </trkpt>
      <trkpt lat="46.06171" lon="6.72978">
        <ele>1045.9</ele>
        <time>2023-08-14T16:16:00Z</time>
      </trkpt>
      <trkpt lat="46.0617" lon="6.7298">
        <ele>1046.6</ele>
        <time>2023-08-14T16:16:02Z</time>
      </trkpt>
      <trkpt lat="46.06169" lon="6.72981">
        <ele>1046.9</ele>
        <time>2023-08-14T16:16:04Z</time>
      </trkpt>
      <trkpt lat="46.06169" lon="6.72983">
        <ele>1047.4</ele>
        <time>2023-08-14T16:16:06Z</time>
      </trkpt>
      <trkpt lat="46.06167" lon="6.72985">
        <ele>1048</ele>
        <time>2023-08-14T16:16:08Z</time>
      </trkpt>
      <trkpt lat="46.06164" lon="6.72994">
        <ele>1050.4</ele>
        <time>2023-08-14T16:16:17Z</time>
      </trkpt>
      <trkpt lat="46.06164" lon="6.72994">
        <ele>1050.6</ele>
        <time>2023-08-14T16:16:18Z</time>
      </trkpt>
      <trkpt lat="46.06162" lon="6.72996">
        <ele>1051.3</ele>
        <time>2023-08-14T16:16:20Z</time>
      </trkpt>
      <trkpt lat="46.06157" lon="6.72998">
        <ele>1053.3</ele>
        <time>2023-08-14T16:16:24Z</time>
      </trkpt>
      <trkpt lat="46.06152" lon="6.72999">
        <ele>1054.8</ele>
        <time>2023-08-14T16:16:27Z</time>
      </trkpt>
      <trkpt lat="46.06137" lon="6.73015">
        <ele>1061.2</ele>
        <time>2023-08-14T16:16:41Z</time>
      </trkpt>
      <trkpt lat="46.06128" lon="6.73025">
        <ele>1064.9</ele>
        <time>2023-08-14T16:16:55Z</time>
      </trkpt>
      <trkpt lat="46.06124" lon="6.73028">
        <ele>1066.3</ele>
        <time>2023-08-14T16:16:58Z</time>
      </trkpt>
      <trkpt lat="46.06118" lon="6.7303">
        <ele>1068.2</ele>
        <time>2023-08-14T16:17:02Z</time>
      </trkpt>
      <trkpt lat="46.06117" lon="6.7303">
        <ele>1068.5</ele>
        <time>2023-08-14T16:17:03Z</time>
      </trkpt>
      <trkpt lat="46.06098" lon="6.73031">
        <ele>1074.5</ele>
        <time>2023-08-14T16:17:14Z</time>
      </trkpt>
      <trkpt lat="46.06093" lon="6.73031">
        <ele>1075.9</ele>
        <time>2023-08-14T16:17:19Z</time>
      </trkpt>
      <trkpt lat="46.06091" lon="6.73031">
        <ele>1076.2</ele>
        <time>2023-08-14T16:17:21Z</time>
      </trkpt>
      <trkpt lat="46.0609" lon="6.73031">
        <ele>1076.5</ele>
        <time>2023-08-14T16:17:24Z</time>
      </trkpt>
      <trkpt lat="46.06088" lon="6.73032">
        <ele>1077.2</ele>
        <time>2023-08-14T16:17:27Z</time>
      </trkpt>
      <trkpt lat="46.06082" lon="6.73033">
        <ele>1079.1</ele>
        <time>2023-08-14T16:17:32Z</time>
      </trkpt>
      <trkpt lat="46.0608" lon="6.73032">
        <ele>1079.7</ele>
        <time>2023-08-14T16:17:33Z</time>
      </trkpt>
      <trkpt lat="46.06077" lon="6.73031">
        <ele>1080.5</ele>
        <time>2023-08-14T16:17:35Z</time>
      </trkpt>
      <trkpt lat="46.0606" lon="6.73023">
        <ele>1086.2</ele>
        <time>2023-08-14T16:17:47Z</time>
      </trkpt>
      <trkpt lat="46.06044" lon="6.73011">
        <ele>1092.6</ele>
        <time>2023-08-14T16:18:01Z</time>
      </trkpt>
      <trkpt lat="46.06042" lon="6.73013">
        <ele>1093.4</ele>
        <time>2023-08-14T16:18:05Z</time>
      </trkpt>
      <trkpt lat="46.0604" lon="6.73018">
        <ele>1095</ele>
        <time>2023-08-14T16:18:13Z</time>
      </trkpt>
      <trkpt lat="46.06038" lon="6.73016">
        <ele>1096</ele>
        <time>2023-08-14T16:18:17Z</time>
      </trkpt>
      <trkpt lat="46.06034" lon="6.7301">
        <ele>1098</ele>
        <time>2023-08-14T16:18:23Z</time>
      </trkpt>
      <trkpt lat="46.06033" lon="6.7301">
        <ele>1098.2</ele>
        <time>2023-08-14T16:18:24Z</time>
      </trkpt>
      <trkpt lat="46.06028" lon="6.73007">
        <ele>1100</ele>
        <time>2023-08-14T16:18:28Z</time>
      </trkpt>
      <trkpt lat="46.06026" lon="6.73007">
        <ele>1100.8</ele>
        <time>2023-08-14T16:18:29Z</time>
      </trkpt>
      <trkpt lat="46.06009" lon="6.72995">
        <ele>1107.8</ele>
        <time>2023-08-14T16:18:41Z</time>
      </trkpt>
      <trkpt lat="46.06005" lon="6.7299">
        <ele>1110.1</ele>
        <time>2023-08-14T16:18:47Z</time>
      </trkpt>
      <trkpt lat="46.06" lon="6.72987">
        <ele>1112.1</ele>
        <time>2023-08-14T16:18:53Z</time>
      </trkpt>
      <trkpt lat="46.06" lon="6.72986">
        <ele>1112.5</ele>
        <time>2023-08-14T16:18:54Z</time>
      </trkpt>
      <trkpt lat="46.05993" lon="6.72984">
        <ele>1115.1</ele>
        <time>2023-08-14T16:19:03Z</time>
      </trkpt>
      <trkpt lat="46.05992" lon="6.72987">
        <ele>1115.9</ele>
        <time>2023-08-14T16:19:06Z</time>
      </trkpt>
      <trkpt lat="46.05992" lon="6.72989">
        <ele>1116.5</ele>
        <time>2023-08-14T16:19:09Z</time>
      </trkpt>
      <trkpt lat="46.05993" lon="6.72992">
        <ele>1117.4</ele>
        <time>2023-08-14T16:19:12Z</time>
      </trkpt>
      <trkpt lat="46.05995" lon="6.72995">
        <ele>1118.4</ele>
        <time>2023-08-14T16:19:14Z</time>
      </trkpt>
      <trkpt lat="46.05996" lon="6.73003">
        <ele>1120.3</ele>
        <time>2023-08-14T16:19:19Z</time>
      </trkpt>
      <trkpt lat="46.05995" lon="6.73003">
        <ele>1120.8</ele>
        <time>2023-08-14T16:19:21Z</time>
      </trkpt>
      <trkpt lat="46.05992" lon="6.73002">
        <ele>1121.7</ele>
        <time>2023-08-14T16:19:24Z</time>
      </trkpt>
      <trkpt lat="46.05991" lon="6.73">
        <ele>1122.4</ele>
        <time>2023-08-14T16:19:27Z</time>
      </trkpt>
      <trkpt lat="46.05978" lon="6.72993">
        <ele>1126.9</ele>
        <time>2023-08-14T16:19:37Z</time>
      </trkpt>
      <trkpt lat="46.05973" lon="6.72992">
        <ele>1128.6</ele>
        <time>2023-08-14T16:19:42Z</time>
      </trkpt>
      <trkpt lat="46.05971" lon="6.72994">
        <ele>1129.2</ele>
        <time>2023-08-14T16:19:44Z</time>
      </trkpt>
      <trkpt lat="46.05967" lon="6.72998">
        <ele>1130.8</ele>
        <time>2023-08-14T16:19:48Z</time>
      </trkpt>
      <trkpt lat="46.05967" lon="6.72999">
        <ele>1131</ele>
        <time>2023-08-14T16:19:51Z</time>
      </trkpt>
      <trkpt lat="46.05966" lon="6.72998">
        <ele>1131.4</ele>
        <time>2023-08-14T16:19:53Z</time>
      </trkpt>
      <trkpt lat="46.05964" lon="6.72999">
        <ele>1132.2</ele>
        <time>2023-08-14T16:19:58Z</time>
      </trkpt>
      <trkpt lat="46.05963" lon="6.72998">
        <ele>1132.6</ele>
        <time>2023-08-14T16:20:00Z</time>
      </trkpt>
      <trkpt lat="46.05961" lon="6.72997">
        <ele>1133.2</ele>
        <time>2023-08-14T16:20:02Z</time>
      </trkpt>
      <trkpt lat="46.05954" lon="6.72996">
        <ele>1135.4</ele>
        <time>2023-08-14T16:20:09Z</time>
      </trkpt>
      <trkpt lat="46.05949" lon="6.72997">
        <ele>1137</ele>
        <time>2023-08-14T16:20:13Z</time>
      </trkpt>
      <trkpt lat="46.05947" lon="6.73">
        <ele>1138.1</ele>
        <time>2023-08-14T16:20:19Z</time>
      </trkpt>
      <trkpt lat="46.05944" lon="6.73001">
        <ele>1139.4</ele>
        <time>2023-08-14T16:20:23Z</time>
      </trkpt>
      <trkpt lat="46.05941" lon="6.73002">
        <ele>1140.4</ele>
        <time>2023-08-14T16:20:25Z</time>
      </trkpt>
      <trkpt lat="46.05934" lon="6.73003">
        <ele>1143.2</ele>
        <time>2023-08-14T16:20:31Z</time>
      </trkpt>
      <trkpt lat="46.05929" lon="6.73003">
        <ele>1145.2</ele>
        <time>2023-08-14T16:20:35Z</time>
      </trkpt>
      <trkpt lat="46.05927" lon="6.73004">
        <ele>1145.7</ele>
        <time>2023-08-14T16:20:36Z</time>
      </trkpt>
      <trkpt lat="46.05915" lon="6.73013">
        <ele>1151</ele>
        <time>2023-08-14T16:20:50Z</time>
      </trkpt>
      <trkpt lat="46.05913" lon="6.73016">
        <ele>1151.8</ele>
        <time>2023-08-14T16:20:53Z</time>
      </trkpt>
      <trkpt lat="46.05913" lon="6.73017">
        <ele>1152.3</ele>
        <time>2023-08-14T16:20:56Z</time>
      </trkpt>
      <trkpt lat="46.05913" lon="6.73022">
        <ele>1153.6</ele>
        <time>2023-08-14T16:21:02Z</time>
      </trkpt>
      <trkpt lat="46.05928" lon="6.73036">
        <ele>1159.3</ele>
        <time>2023-08-14T16:21:20Z</time>
      </trkpt>
      <trkpt lat="46.05944" lon="6.7305">
        <ele>1164.3</ele>
        <time>2023-08-14T16:21:33Z</time>
      </trkpt>
      <trkpt lat="46.05945" lon="6.73054">
        <ele>1165</ele>
        <time>2023-08-14T16:21:35Z</time>
      </trkpt>
      <trkpt lat="46.05948" lon="6.73066">
        <ele>1167.6</ele>
        <time>2023-08-14T16:21:41Z</time>
      </trkpt>
      <trkpt lat="46.0595" lon="6.7307">
        <ele>1168.7</ele>
        <time>2023-08-14T16:21:43Z</time>
      </trkpt>
      <trkpt lat="46.05951" lon="6.73075">
        <ele>1169.9</ele>
        <time>2023-08-14T16:21:46Z</time>
      </trkpt>
      <trkpt lat="46.05951" lon="6.73078">
        <ele>1170.6</ele>
        <time>2023-08-14T16:21:49Z</time>
      </trkpt>
      <trkpt lat="46.0595" lon="6.73077">
        <ele>1170.9</ele>
        <time>2023-08-14T16:21:51Z</time>
      </trkpt>
      <trkpt lat="46.05941" lon="6.7307">
        <ele>1174.6</ele>
        <time>2023-08-14T16:22:04Z</time>
      </trkpt>
      <trkpt lat="46.05921" lon="6.73075">
        <ele>1180.4</ele>
        <time>2023-08-14T16:22:17Z</time>
      </trkpt>
      <trkpt lat="46.05918" lon="6.73075">
        <ele>1181.4</ele>
        <time>2023-08-14T16:22:21Z</time>
      </trkpt>
      <trkpt lat="46.05915" lon="6.73075">
        <ele>1182.5</ele>
        <time>2023-08-14T16:22:25Z</time>
      </trkpt>
      <trkpt lat="46.05911" lon="6.73078">
        <ele>1183.9</ele>
        <time>2023-08-14T16:22:30Z</time>
      </trkpt>
      <trkpt lat="46.05912" lon="6.7308">
        <ele>1184.5</ele>
        <time>2023-08-14T16:22:32Z</time>
      </trkpt>
      <trkpt lat="46.05917" lon="6.73087">
        <ele>1186.8</ele>
        <time>2023-08-14T16:22:41Z</time>
      </trkpt>
      <trkpt lat="46.05921" lon="6.73095">
        <ele>1188.8</ele>
        <time>2023-08-14T16:22:48Z</time>
      </trkpt>
      <trkpt lat="46.05924" lon="6.73106">
        <ele>1191.5</ele>
        <time>2023-08-14T16:22:56Z</time>
      </trkpt>
      <trkpt lat="46.05918" lon="6.73117">
        <ele>1195</ele>
        <time>2023-08-14T16:23:05Z</time>
      </trkpt>
      <trkpt lat="46.059" lon="6.73114">
        <ele>1201.7</ele>
        <time>2023-08-14T16:23:19Z</time>
      </trkpt>
      <trkpt lat="46.05881" lon="6.73115">
        <ele>1207.6</ele>
        <time>2023-08-14T16:23:34Z</time>
      </trkpt>
      <trkpt lat="46.05878" lon="6.73118">
        <ele>1208.9</ele>
        <time>2023-08-14T16:23:40Z</time>
      </trkpt>
      <trkpt lat="46.05875" lon="6.73118">
        <ele>1209.6</ele>
        <time>2023-08-14T16:23:44Z</time>
      </trkpt>
      <trkpt lat="46.05872" lon="6.73119">
        <ele>1210.8</ele>
        <time>2023-08-14T16:23:48Z</time>
      </trkpt>
      <trkpt lat="46.0587" lon="6.7312">
        <ele>1211.5</ele>
        <time>2023-08-14T16:23:50Z</time>
      </trkpt>
      <trkpt lat="46.05864" lon="6.73121">
        <ele>1213.1</ele>
        <time>2023-08-14T16:23:56Z</time>
      </trkpt>
      <trkpt lat="46.05858" lon="6.73122">
        <ele>1214.9</ele>
        <time>2023-08-14T16:24:00Z</time>
      </trkpt>
      <trkpt lat="46.05839" lon="6.73124">
        <ele>1220</ele>
        <time>2023-08-14T16:24:15Z</time>
      </trkpt>
      <trkpt lat="46.05835" lon="6.73123">
        <ele>1220.9</ele>
        <time>2023-08-14T16:24:18Z</time>
      </trkpt>
      <trkpt lat="46.05816" lon="6.73117">
        <ele>1225</ele>
        <time>2023-08-14T16:24:30Z</time>
      </trkpt>
      <trkpt lat="46.05804" lon="6.73118">
        <ele>1227.6</ele>
        <time>2023-08-14T16:24:38Z</time>
      </trkpt>
      <trkpt lat="46.05786" lon="6.73113">
        <ele>1232.3</ele>
        <time>2023-08-14T16:24:49Z</time>
      </trkpt>
      <trkpt lat="46.0577" lon="6.731">
        <ele>1237</ele>
        <time>2023-08-14T16:24:59Z</time>
      </trkpt>
      <trkpt lat="46.05754" lon="6.73086">
        <ele>1240.8</ele>
        <time>2023-08-14T16:25:10Z</time>
      </trkpt>
      <trkpt lat="46.05739" lon="6.73072">
        <ele>1244.4</ele>
        <time>2023-08-14T16:25:22Z</time>
      </trkpt>
      <trkpt lat="46.05724" lon="6.73056">
        <ele>1248.5</ele>
        <time>2023-08-14T16:25:35Z</time>
      </trkpt>
      <trkpt lat="46.05709" lon="6.73042">
        <ele>1252.2</ele>
        <time>2023-08-14T16:25:45Z</time>
      </trkpt>
      <trkpt lat="46.05695" lon="6.73024">
        <ele>1256</ele>
        <time>2023-08-14T16:25:56Z</time>
      </trkpt>
      <trkpt lat="46.05681" lon="6.73005">
        <ele>1260.7</ele>
        <time>2023-08-14T16:26:10Z</time>
      </trkpt>
      <trkpt lat="46.05669" lon="6.72984">
        <ele>1265.7</ele>
        <time>2023-08-14T16:26:20Z</time>
      </trkpt>
      <trkpt lat="46.05652" lon="6.72975">
        <ele>1270.8</ele>
        <time>2023-08-14T16:26:34Z</time>
      </trkpt>
      <trkpt lat="46.05639" lon="6.7298">
        <ele>1274.6</ele>
        <time>2023-08-14T16:26:49Z</time>
      </trkpt>
      <trkpt lat="46.05638" lon="6.72983">
        <ele>1275.2</ele>
        <time>2023-08-14T16:26:53Z</time>
      </trkpt>
      <trkpt lat="46.05636" lon="6.72986">
        <ele>1276.3</ele>
        <time>2023-08-14T16:26:57Z</time>
      </trkpt>
      <trkpt lat="46.05633" lon="6.72987">
        <ele>1277.1</ele>
        <time>2023-08-14T16:26:59Z</time>
      </trkpt>
      <trkpt lat="46.05626" lon="6.72989">
        <ele>1279.1</ele>
        <time>2023-08-14T16:27:05Z</time>
      </trkpt>
      <trkpt lat="46.05623" lon="6.7299">
        <ele>1280.1</ele>
        <time>2023-08-14T16:27:08Z</time>
      </trkpt>
      <trkpt lat="46.05619" lon="6.72992">
        <ele>1281.4</ele>
        <time>2023-08-14T16:27:11Z</time>
      </trkpt>
      <trkpt lat="46.05613" lon="6.72993">
        <ele>1283.3</ele>
        <time>2023-08-14T16:27:18Z</time>
      </trkpt>
      <trkpt lat="46.05611" lon="6.72993">
        <ele>1283.9</ele>
        <time>2023-08-14T16:27:20Z</time>
      </trkpt>
      <trkpt lat="46.05607" lon="6.72992">
        <ele>1285.1</ele>
        <time>2023-08-14T16:27:23Z</time>
      </trkpt>
      <trkpt lat="46.05594" lon="6.73012">
        <ele>1291.6</ele>
        <time>2023-08-14T16:27:38Z</time>
      </trkpt>
      <trkpt lat="46.05576" lon="6.73023">
        <ele>1298.6</ele>
        <time>2023-08-14T16:27:52Z</time>
      </trkpt>
      <trkpt lat="46.05563" lon="6.73031">
        <ele>1302.6</ele>
        <time>2023-08-14T16:28:04Z</time>
      </trkpt>
      <trkpt lat="46.05545" lon="6.73028">
        <ele>1306.6</ele>
        <time>2023-08-14T16:28:18Z</time>
      </trkpt>
      <trkpt lat="46.05543" lon="6.73028">
        <ele>1307</ele>
        <time>2023-08-14T16:28:19Z</time>
      </trkpt>
      <trkpt lat="46.0554" lon="6.73029">
        <ele>1307.6</ele>
        <time>2023-08-14T16:28:23Z</time>
      </trkpt>
      <trkpt lat="46.05539" lon="6.73029">
        <ele>1307.9</ele>
        <time>2023-08-14T16:28:24Z</time>
      </trkpt>
      <trkpt lat="46.05537" lon="6.73029">
        <ele>1308.3</ele>
        <time>2023-08-14T16:28:26Z</time>
      </trkpt>
      <trkpt lat="46.05534" lon="6.73031">
        <ele>1309</ele>
        <time>2023-08-14T16:28:29Z</time>
      </trkpt>
      <trkpt lat="46.05531" lon="6.73031">
        <ele>1309.9</ele>
        <time>2023-08-14T16:28:32Z</time>
      </trkpt>
      <trkpt lat="46.05511" lon="6.73026">
        <ele>1314.7</ele>
        <time>2023-08-14T16:28:40Z</time>
      </trkpt>
      <trkpt lat="46.05494" lon="6.73015">
        <ele>1319.6</ele>
        <time>2023-08-14T16:28:54Z</time>
      </trkpt>
      <trkpt lat="46.05484" lon="6.73005">
        <ele>1322.8</ele>
        <time>2023-08-14T16:29:04Z</time>
      </trkpt>
      <trkpt lat="46.05466" lon="6.73007">
        <ele>1328.5</ele>
        <time>2023-08-14T16:29:23Z</time>
      </trkpt>
      <trkpt lat="46.0546" lon="6.73001">
        <ele>1330.8</ele>
        <time>2023-08-14T16:29:29Z</time>
      </trkpt>
      <trkpt lat="46.05454" lon="6.72976">
        <ele>1333.1</ele>
        <time>2023-08-14T16:29:37Z</time>
      </trkpt>
      <trkpt lat="46.05444" lon="6.72954">
        <ele>1331</ele>
        <time>2023-08-14T16:29:46Z</time>
      </trkpt>
      <trkpt lat="46.05432" lon="6.72934">
        <ele>1329.3</ele>
        <time>2023-08-14T16:29:56Z</time>
      </trkpt>
      <trkpt lat="46.05418" lon="6.72917">
        <ele>1327.4</ele>
        <time>2023-08-14T16:30:05Z</time>
      </trkpt>
      <trkpt lat="46.05411" lon="6.72891">
        <ele>1325.1</ele>
        <time>2023-08-14T16:30:14Z</time>
      </trkpt>
      <trkpt lat="46.0541" lon="6.72863">
        <ele>1323.2</ele>
        <time>2023-08-14T16:30:22Z</time>
      </trkpt>
      <trkpt lat="46.05401" lon="6.72839">
        <ele>1321.2</ele>
        <time>2023-08-14T16:30:30Z</time>
      </trkpt>
      <trkpt lat="46.05392" lon="6.72817">
        <ele>1318.9</ele>
        <time>2023-08-14T16:30:39Z</time>
      </trkpt>
      <trkpt lat="46.05383" lon="6.72793">
        <ele>1315.7</ele>
        <time>2023-08-14T16:30:48Z</time>
      </trkpt>
      <trkpt lat="46.05373" lon="6.72771">
        <ele>1312.3</ele>
        <time>2023-08-14T16:30:59Z</time>
      </trkpt>
      <trkpt lat="46.05362" lon="6.72748">
        <ele>1308.8</ele>
        <time>2023-08-14T16:31:10Z</time>
      </trkpt>
      <trkpt lat="46.05352" lon="6.72724">
        <ele>1305.2</ele>
        <time>2023-08-14T16:31:19Z</time>
      </trkpt>
      <trkpt lat="46.05339" lon="6.72702">
        <ele>1302.1</ele>
        <time>2023-08-14T16:31:28Z</time>
      </trkpt>
      <trkpt lat="46.05326" lon="6.72685">
        <ele>1299.4</ele>
        <time>2023-08-14T16:31:37Z</time>
      </trkpt>
      <trkpt lat="46.0531" lon="6.72667">
        <ele>1296.5</ele>
        <time>2023-08-14T16:31:45Z</time>
      </trkpt>
      <trkpt lat="46.05294" lon="6.72656">
        <ele>1293.6</ele>
        <time>2023-08-14T16:31:51Z</time>
      </trkpt>
      <trkpt lat="46.05276" lon="6.7265">
        <ele>1290.9</ele>
        <time>2023-08-14T16:32:02Z</time>
      </trkpt>
      <trkpt lat="46.05258" lon="6.72647">
        <ele>1287.6</ele>
        <time>2023-08-14T16:32:12Z</time>
      </trkpt>
      <trkpt lat="46.05242" lon="6.7263">
        <ele>1283.8</ele>
        <time>2023-08-14T16:32:20Z</time>
      </trkpt>
      <trkpt lat="46.05225" lon="6.72617">
        <ele>1280.1</ele>
        <time>2023-08-14T16:32:30Z</time>
      </trkpt>
      <trkpt lat="46.05219" lon="6.72613">
        <ele>1279</ele>
        <time>2023-08-14T16:32:34Z</time>
      </trkpt>
      <trkpt lat="46.05203" lon="6.726">
        <ele>1275.5</ele>
        <time>2023-08-14T16:32:44Z</time>
      </trkpt>
      <trkpt lat="46.05191" lon="6.72579">
        <ele>1271.9</ele>
        <time>2023-08-14T16:32:52Z</time>
      </trkpt>
      <trkpt lat="46.05176" lon="6.72562">
        <ele>1268.8</ele>
        <time>2023-08-14T16:33:01Z</time>
      </trkpt>
      <trkpt lat="46.05163" lon="6.72539">
        <ele>1265.4</ele>
        <time>2023-08-14T16:33:08Z</time>
      </trkpt>
      <trkpt lat="46.05147" lon="6.72523">
        <ele>1262.8</ele>
        <time>2023-08-14T16:33:17Z</time>
      </trkpt>
      <trkpt lat="46.05141" lon="6.72497">
        <ele>1260.6</ele>
        <time>2023-08-14T16:33:24Z</time>
      </trkpt>
      <trkpt lat="46.05126" lon="6.72477">
        <ele>1258</ele>
        <time>2023-08-14T16:33:33Z</time>
      </trkpt>
      <trkpt lat="46.05108" lon="6.72467">
        <ele>1255.2</ele>
        <time>2023-08-14T16:33:46Z</time>
      </trkpt>
      <trkpt lat="46.05092" lon="6.72455">
        <ele>1252.1</ele>
        <time>2023-08-14T16:33:53Z</time>
      </trkpt>
      <trkpt lat="46.05082" lon="6.72433">
        <ele>1248.5</ele>
        <time>2023-08-14T16:34:02Z</time>
      </trkpt>
      <trkpt lat="46.05071" lon="6.7241">
        <ele>1244.7</ele>
        <time>2023-08-14T16:34:09Z</time>
      </trkpt>
      <trkpt lat="46.0506" lon="6.72386">
        <ele>1241.1</ele>
        <time>2023-08-14T16:34:16Z</time>
      </trkpt>
      <trkpt lat="46.05046" lon="6.72368">
        <ele>1237.8</ele>
        <time>2023-08-14T16:34:24Z</time>
      </trkpt>
      <trkpt lat="46.0503" lon="6.72352">
        <ele>1233.9</ele>
        <time>2023-08-14T16:34:33Z</time>
      </trkpt>
      <trkpt lat="46.0502" lon="6.7233">
        <ele>1230.1</ele>
        <time>2023-08-14T16:34:41Z</time>
      </trkpt>
      <trkpt lat="46.05011" lon="6.72308">
        <ele>1226.2</ele>
        <time>2023-08-14T16:34:50Z</time>
      </trkpt>
      <trkpt lat="46.04996" lon="6.72292">
        <ele>1222.4</ele>
        <time>2023-08-14T16:35:02Z</time>
      </trkpt>
      <trkpt lat="46.04979" lon="6.7228">
        <ele>1218.3</ele>
        <time>2023-08-14T16:35:12Z</time>
      </trkpt>
      <trkpt lat="46.04976" lon="6.72257">
        <ele>1214.9</ele>
        <time>2023-08-14T16:35:25Z</time>
      </trkpt>
      <trkpt lat="46.04982" lon="6.72231">
        <ele>1211.1</ele>
        <time>2023-08-14T16:35:32Z</time>
      </trkpt>
      <trkpt lat="46.04973" lon="6.72207">
        <ele>1206.8</ele>
        <time>2023-08-14T16:35:42Z</time>
      </trkpt>
      <trkpt lat="46.04961" lon="6.72185">
        <ele>1202.2</ele>
        <time>2023-08-14T16:35:53Z</time>
      </trkpt>
      <trkpt lat="46.04945" lon="6.72168">
        <ele>1197.8</ele>
        <time>2023-08-14T16:36:02Z</time>
      </trkpt>
      <trkpt lat="46.04932" lon="6.72146">
        <ele>1193.5</ele>
        <time>2023-08-14T16:36:10Z</time>
      </trkpt>
      <trkpt lat="46.04915" lon="6.72129">
        <ele>1189.7</ele>
        <time>2023-08-14T16:36:18Z</time>
      </trkpt>
      <trkpt lat="46.04904" lon="6.72107">
        <ele>1186</ele>
        <time>2023-08-14T16:36:26Z</time>
      </trkpt>
      <trkpt lat="46.04901" lon="6.72081">
        <ele>1182</ele>
        <time>2023-08-14T16:36:34Z</time>
      </trkpt>
      <trkpt lat="46.04891" lon="6.72058">
        <ele>1177.8</ele>
        <time>2023-08-14T16:36:43Z</time>
      </trkpt>
      <trkpt lat="46.04877" lon="6.72038">
        <ele>1173.5</ele>
        <time>2023-08-14T16:36:52Z</time>
      </trkpt>
      <trkpt lat="46.04862" lon="6.72019">
        <ele>1169.3</ele>
        <time>2023-08-14T16:36:59Z</time>
      </trkpt>
      <trkpt lat="46.04846" lon="6.72006">
        <ele>1166.1</ele>
        <time>2023-08-14T16:37:06Z</time>
      </trkpt>
      <trkpt lat="46.04843" lon="6.71983">
        <ele>1163.4</ele>
        <time>2023-08-14T16:37:15Z</time>
      </trkpt>
      <trkpt lat="46.04847" lon="6.7198">
        <ele>1162.7</ele>
        <time>2023-08-14T16:37:16Z</time>
      </trkpt>
      <trkpt lat="46.04862" lon="6.71994">
        <ele>1159.6</ele>
        <time>2023-08-14T16:37:26Z</time>
      </trkpt>
      <trkpt lat="46.04878" lon="6.72007">
        <ele>1156.6</ele>
        <time>2023-08-14T16:37:34Z</time>
      </trkpt>
      <trkpt lat="46.04897" lon="6.72012">
        <ele>1153.4</ele>
        <time>2023-08-14T16:37:42Z</time>
      </trkpt>
      <trkpt lat="46.04912" lon="6.71998">
        <ele>1149.9</ele>
        <time>2023-08-14T16:37:51Z</time>
      </trkpt>
      <trkpt lat="46.04927" lon="6.71982">
        <ele>1146.2</ele>
        <time>2023-08-14T16:38:00Z</time>
      </trkpt>
      <trkpt lat="46.04945" lon="6.71972">
        <ele>1142.6</ele>
        <time>2023-08-14T16:38:09Z</time>
      </trkpt>
      <trkpt lat="46.04962" lon="6.71964">
        <ele>1139.6</ele>
        <time>2023-08-14T16:38:17Z</time>
      </trkpt>
      <trkpt lat="46.04979" lon="6.71951">
        <ele>1136.7</ele>
        <time>2023-08-14T16:38:25Z</time>
      </trkpt>
      <trkpt lat="46.04991" lon="6.71929">
        <ele>1134.6</ele>
        <time>2023-08-14T16:38:33Z</time>
      </trkpt>
      <trkpt lat="46.05005" lon="6.71911">
        <ele>1134.3</ele>
        <time>2023-08-14T16:38:40Z</time>
      </trkpt>
      <trkpt lat="46.0502" lon="6.71895">
        <ele>1134.3</ele>
        <time>2023-08-14T16:38:48Z</time>
      </trkpt>
      <trkpt lat="46.05039" lon="6.71888">
        <ele>1135.8</ele>
        <time>2023-08-14T16:38:58Z</time>
      </trkpt>
      <trkpt lat="46.05058" lon="6.7189">
        <ele>1136.4</ele>
        <time>2023-08-14T16:39:09Z</time>
      </trkpt>
      <trkpt lat="46.05078" lon="6.71892">
        <ele>1137</ele>
        <time>2023-08-14T16:39:19Z</time>
      </trkpt>
      <trkpt lat="46.05096" lon="6.71886">
        <ele>1138.2</ele>
        <time>2023-08-14T16:39:29Z</time>
      </trkpt>
      <trkpt lat="46.05114" lon="6.71882">
        <ele>1139.3</ele>
        <time>2023-08-14T16:39:39Z</time>
      </trkpt>
      <trkpt lat="46.05133" lon="6.71887">
        <ele>1138.9</ele>
        <time>2023-08-14T16:39:48Z</time>
      </trkpt>
      <trkpt lat="46.05151" lon="6.71895">
        <ele>1138.6</ele>
        <time>2023-08-14T16:39:59Z</time>
      </trkpt>
      <trkpt lat="46.05169" lon="6.71908">
        <ele>1138.2</ele>
        <time>2023-08-14T16:40:10Z</time>
      </trkpt>
      <trkpt lat="46.05187" lon="6.71914">
        <ele>1137.9</ele>
        <time>2023-08-14T16:40:17Z</time>
      </trkpt>
      <trkpt lat="46.05207" lon="6.71917">
        <ele>1137.6</ele>
        <time>2023-08-14T16:40:24Z</time>
      </trkpt>
      <trkpt lat="46.05223" lon="6.71936">
        <ele>1137.2</ele>
        <time>2023-08-14T16:40:36Z</time>
      </trkpt>
      <trkpt lat="46.05241" lon="6.71943">
        <ele>1136.9</ele>
        <time>2023-08-14T16:40:44Z</time>
      </trkpt>
      <trkpt lat="46.05258" lon="6.71955">
        <ele>1136.6</ele>
        <time>2023-08-14T16:40:52Z</time>
      </trkpt>
      <trkpt lat="46.05274" lon="6.7197">
        <ele>1136.2</ele>
        <time>2023-08-14T16:40:58Z</time>
      </trkpt>
      <trkpt lat="46.05294" lon="6.71984">
        <ele>1135.7</ele>
        <time>2023-08-14T16:41:03Z</time>
      </trkpt>
      <trkpt lat="46.05312" lon="6.71992">
        <ele>1135.1</ele>
        <time>2023-08-14T16:41:07Z</time>
      </trkpt>
      <trkpt lat="46.05329" lon="6.72003">
        <ele>1135.1</ele>
        <time>2023-08-14T16:41:15Z</time>
      </trkpt>
      <trkpt lat="46.05347" lon="6.72018">
        <ele>1135.2</ele>
        <time>2023-08-14T16:41:23Z</time>
      </trkpt>
      <trkpt lat="46.05366" lon="6.72025">
        <ele>1135.2</ele>
        <time>2023-08-14T16:41:30Z</time>
      </trkpt>
      <trkpt lat="46.05382" lon="6.72038">
        <ele>1135.3</ele>
        <time>2023-08-14T16:41:36Z</time>
      </trkpt>
      <trkpt lat="46.05397" lon="6.72057">
        <ele>1135.4</ele>
        <time>2023-08-14T16:41:44Z</time>
      </trkpt>
      <trkpt lat="46.05417" lon="6.72065">
        <ele>1135.5</ele>
        <time>2023-08-14T16:41:50Z</time>
      </trkpt>
      <trkpt lat="46.05434" lon="6.72075">
        <ele>1135.6</ele>
        <time>2023-08-14T16:41:56Z</time>
      </trkpt>
      <trkpt lat="46.05452" lon="6.72082">
        <ele>1135.6</ele>
        <time>2023-08-14T16:42:02Z</time>
      </trkpt>
      <trkpt lat="46.0547" lon="6.7209">
        <ele>1135.8</ele>
        <time>2023-08-14T16:42:09Z</time>
      </trkpt>
      <trkpt lat="46.05491" lon="6.72097">
        <ele>1135.9</ele>
        <time>2023-08-14T16:42:14Z</time>
      </trkpt>
      <trkpt lat="46.05509" lon="6.72103">
        <ele>1136</ele>
        <time>2023-08-14T16:42:19Z</time>
      </trkpt>
      <trkpt lat="46.05526" lon="6.72114">
        <ele>1136.1</ele>
        <time>2023-08-14T16:42:25Z</time>
      </trkpt>
      <trkpt lat="46.05546" lon="6.72127">
        <ele>1136.3</ele>
        <time>2023-08-14T16:42:30Z</time>
      </trkpt>
      <trkpt lat="46.05563" lon="6.72139">
        <ele>1136.3</ele>
        <time>2023-08-14T16:42:36Z</time>
      </trkpt>
      <trkpt lat="46.05582" lon="6.72147">
        <ele>1136.4</ele>
        <time>2023-08-14T16:42:41Z</time>
      </trkpt>
      <trkpt lat="46.056" lon="6.72152">
        <ele>1136.6</ele>
        <time>2023-08-14T16:42:47Z</time>
      </trkpt>
      <trkpt lat="46.05618" lon="6.72164">
        <ele>1136.7</ele>
        <time>2023-08-14T16:42:54Z</time>
      </trkpt>
      <trkpt lat="46.05636" lon="6.72177">
        <ele>1136.7</ele>
        <time>2023-08-14T16:42:59Z</time>
      </trkpt>
      <trkpt lat="46.05653" lon="6.72189">
        <ele>1136.9</ele>
        <time>2023-08-14T16:43:04Z</time>
      </trkpt>
      <trkpt lat="46.05667" lon="6.72206">
        <ele>1137</ele>
        <time>2023-08-14T16:43:09Z</time>
      </trkpt>
      <trkpt lat="46.05685" lon="6.72217">
        <ele>1137</ele>
        <time>2023-08-14T16:43:15Z</time>
      </trkpt>
      <trkpt lat="46.05702" lon="6.72233">
        <ele>1137</ele>
        <time>2023-08-14T16:43:21Z</time>
      </trkpt>
      <trkpt lat="46.05718" lon="6.72247">
        <ele>1137.1</ele>
        <time>2023-08-14T16:43:27Z</time>
      </trkpt>
      <trkpt lat="46.05734" lon="6.72265">
        <ele>1137.2</ele>
        <time>2023-08-14T16:43:34Z</time>
      </trkpt>
      <trkpt lat="46.05749" lon="6.72279">
        <ele>1137.3</ele>
        <time>2023-08-14T16:43:39Z</time>
      </trkpt>
      <trkpt lat="46.05763" lon="6.72295">
        <ele>1137.5</ele>
        <time>2023-08-14T16:43:45Z</time>
      </trkpt>
      <trkpt lat="46.0578" lon="6.72308">
        <ele>1137.6</ele>
        <time>2023-08-14T16:43:50Z</time>
      </trkpt>
      <trkpt lat="46.05799" lon="6.72317">
        <ele>1137.7</ele>
        <time>2023-08-14T16:43:55Z</time>
      </trkpt>
      <trkpt lat="46.0582" lon="6.72324">
        <ele>1137.8</ele>
        <time>2023-08-14T16:44:00Z</time>
      </trkpt>
      <trkpt lat="46.05839" lon="6.72336">
        <ele>1137.9</ele>
        <time>2023-08-14T16:44:05Z</time>
      </trkpt>
      <trkpt lat="46.05856" lon="6.7235">
        <ele>1137.9</ele>
        <time>2023-08-14T16:44:10Z</time>
      </trkpt>
      <trkpt lat="46.05871" lon="6.72368">
        <ele>1137.9</ele>
        <time>2023-08-14T16:44:15Z</time>
      </trkpt>
      <trkpt lat="46.05887" lon="6.72387">
        <ele>1137.9</ele>
        <time>2023-08-14T16:44:20Z</time>
      </trkpt>
      <trkpt lat="46.05903" lon="6.72404">
        <ele>1138</ele>
        <time>2023-08-14T16:44:24Z</time>
      </trkpt>
      <trkpt lat="46.05919" lon="6.72419">
        <ele>1138.2</ele>
        <time>2023-08-14T16:44:29Z</time>
      </trkpt>
      <trkpt lat="46.05936" lon="6.72429">
        <ele>1138.2</ele>
        <time>2023-08-14T16:44:34Z</time>
      </trkpt>
      <trkpt lat="46.05954" lon="6.7244">
        <ele>1138.3</ele>
        <time>2023-08-14T16:44:39Z</time>
      </trkpt>
      <trkpt lat="46.05971" lon="6.72451">
        <ele>1138.2</ele>
        <time>2023-08-14T16:44:44Z</time>
      </trkpt>
      <trkpt lat="46.0599" lon="6.72457">
        <ele>1138.2</ele>
        <time>2023-08-14T16:44:49Z</time>
      </trkpt>
      <trkpt lat="46.0601" lon="6.72458">
        <ele>1138.1</ele>
        <time>2023-08-14T16:44:54Z</time>
      </trkpt>
      <trkpt lat="46.0603" lon="6.72462">
        <ele>1138.1</ele>
        <time>2023-08-14T16:44:59Z</time>
      </trkpt>
      <trkpt lat="46.06051" lon="6.72467">
        <ele>1137.8</ele>
        <time>2023-08-14T16:45:04Z</time>
      </trkpt>
      <trkpt lat="46.06072" lon="6.72468">
        <ele>1137.1</ele>
        <time>2023-08-14T16:45:09Z</time>
      </trkpt>
      <trkpt lat="46.06094" lon="6.72471">
        <ele>1136.6</ele>
        <time>2023-08-14T16:45:14Z</time>
      </trkpt>
      <trkpt lat="46.06115" lon="6.72477">
        <ele>1135.3</ele>
        <time>2023-08-14T16:45:19Z</time>
      </trkpt>
      <trkpt lat="46.06136" lon="6.72487">
        <ele>1132</ele>
        <time>2023-08-14T16:45:24Z</time>
      </trkpt>
      <trkpt lat="46.06156" lon="6.72496">
        <ele>1128.6</ele>
        <time>2023-08-14T16:45:29Z</time>
      </trkpt>
      <trkpt lat="46.06177" lon="6.725">
        <ele>1124.9</ele>
        <time>2023-08-14T16:45:35Z</time>
      </trkpt>
      <trkpt lat="46.06184" lon="6.725">
        <ele>1123.6</ele>
        <time>2023-08-14T16:45:36Z</time>
      </trkpt>
      <trkpt lat="46.06199" lon="6.72496">
        <ele>1120.9</ele>
        <time>2023-08-14T16:45:41Z</time>
      </trkpt>
      <trkpt lat="46.06215" lon="6.72484">
        <ele>1117.8</ele>
        <time>2023-08-14T16:45:47Z</time>
      </trkpt>
      <trkpt lat="46.06234" lon="6.72485">
        <ele>1114.7</ele>
        <time>2023-08-14T16:46:18Z</time>
      </trkpt>
      <trkpt lat="46.06253" lon="6.72473">
        <ele>1112.3</ele>
        <time>2023-08-14T16:46:25Z</time>
      </trkpt>
      <trkpt lat="46.06267" lon="6.72457">
        <ele>1110.4</ele>
        <time>2023-08-14T16:46:33Z</time>
      </trkpt>
      <trkpt lat="46.06286" lon="6.72445">
        <ele>1108.4</ele>
        <time>2023-08-14T16:46:41Z</time>
      </trkpt>
      <trkpt lat="46.06305" lon="6.72437">
        <ele>1106.5</ele>
        <time>2023-08-14T16:46:48Z</time>
      </trkpt>
      <trkpt lat="46.0631" lon="6.72439">
        <ele>1106.4</ele>
        <time>2023-08-14T16:46:50Z</time>
      </trkpt>
      <trkpt lat="46.06322" lon="6.72463">
        <ele>1102.9</ele>
        <time>2023-08-14T16:46:57Z</time>
      </trkpt>
      <trkpt lat="46.0634" lon="6.72476">
        <ele>1102.5</ele>
        <time>2023-08-14T16:47:04Z</time>
      </trkpt>
      <trkpt lat="46.06357" lon="6.72477">
        <ele>1102</ele>
        <time>2023-08-14T16:47:12Z</time>
      </trkpt>
      <trkpt lat="46.06369" lon="6.72473">
        <ele>1100.3</ele>
        <time>2023-08-14T16:47:19Z</time>
      </trkpt>
      <trkpt lat="46.06368" lon="6.72472">
        <ele>1100</ele>
        <time>2023-08-14T16:47:29Z</time>
      </trkpt>
      <trkpt lat="46.06386" lon="6.72479">
        <ele>1094.4</ele>
        <time>2023-08-14T16:47:42Z</time>
      </trkpt>
      <trkpt lat="46.06404" lon="6.72485">
        <ele>1088.4</ele>
        <time>2023-08-14T16:47:53Z</time>
      </trkpt>
      <trkpt lat="46.0642" lon="6.72497">
        <ele>1082.9</ele>
        <time>2023-08-14T16:48:02Z</time>
      </trkpt>
      <trkpt lat="46.06438" lon="6.72489">
        <ele>1079.1</ele>
        <time>2023-08-14T16:48:08Z</time>
      </trkpt>
      <trkpt lat="46.06456" lon="6.7248">
        <ele>1075.3</ele>
        <time>2023-08-14T16:48:19Z</time>
      </trkpt>
      <trkpt lat="46.06475" lon="6.72481">
        <ele>1071.2</ele>
        <time>2023-08-14T16:48:29Z</time>
      </trkpt>
      <trkpt lat="46.06494" lon="6.7248">
        <ele>1065.9</ele>
        <time>2023-08-14T16:48:40Z</time>
      </trkpt>
      <trkpt lat="46.06512" lon="6.72473">
        <ele>1059.9</ele>
        <time>2023-08-14T16:48:49Z</time>
      </trkpt>
      <trkpt lat="46.06531" lon="6.72468">
        <ele>1054.6</ele>
        <time>2023-08-14T16:48:57Z</time>
      </trkpt>
      <trkpt lat="46.06551" lon="6.72465">
        <ele>1049.8</ele>
        <time>2023-08-14T16:49:06Z</time>
      </trkpt>
      <trkpt lat="46.06569" lon="6.7246">
        <ele>1045.6</ele>
        <time>2023-08-14T16:49:15Z</time>
      </trkpt>
      <trkpt lat="46.06587" lon="6.72455">
        <ele>1041.5</ele>
        <time>2023-08-14T16:49:24Z</time>
      </trkpt>
      <trkpt lat="46.06601" lon="6.72442">
        <ele>1038.5</ele>
        <time>2023-08-14T16:49:34Z</time>
      </trkpt>
      <trkpt lat="46.06621" lon="6.72435">
        <ele>1036</ele>
        <time>2023-08-14T16:49:42Z</time>
      </trkpt>
      <trkpt lat="46.06627" lon="6.72435">
        <ele>1034.9</ele>
        <time>2023-08-14T16:49:45Z</time>
      </trkpt>
      <trkpt lat="46.06629" lon="6.7244">
        <ele>1033.8</ele>
        <time>2023-08-14T16:49:47Z</time>
      </trkpt>
      <trkpt lat="46.06632" lon="6.72466">
        <ele>1029.2</ele>
        <time>2023-08-14T16:49:56Z</time>
      </trkpt>
      <trkpt lat="46.0663" lon="6.72491">
        <ele>1024.1</ele>
        <time>2023-08-14T16:50:06Z</time>
      </trkpt>
      <trkpt lat="46.06631" lon="6.72494">
        <ele>1023.6</ele>
        <time>2023-08-14T16:50:07Z</time>
      </trkpt>
      <trkpt lat="46.06639" lon="6.72502">
        <ele>1020.9</ele>
        <time>2023-08-14T16:50:16Z</time>
      </trkpt>
      <trkpt lat="46.06657" lon="6.72503">
        <ele>1015.8</ele>
        <time>2023-08-14T16:50:27Z</time>
      </trkpt>
      <trkpt lat="46.06675" lon="6.72498">
        <ele>1010.6</ele>
        <time>2023-08-14T16:50:40Z</time>
      </trkpt>
      <trkpt lat="46.06694" lon="6.72495">
        <ele>1005.5</ele>
        <time>2023-08-14T16:50:49Z</time>
      </trkpt>
      <trkpt lat="46.067" lon="6.72497">
        <ele>1004.1</ele>
        <time>2023-08-14T16:50:50Z</time>
      </trkpt>
      <trkpt lat="46.06707" lon="6.72502">
        <ele>1001.9</ele>
        <time>2023-08-14T16:50:55Z</time>
      </trkpt>
      <trkpt lat="46.06719" lon="6.72512">
        <ele>998.1</ele>
        <time>2023-08-14T16:51:02Z</time>
      </trkpt>
      <trkpt lat="46.06739" lon="6.72514">
        <ele>993.7</ele>
        <time>2023-08-14T16:51:12Z</time>
      </trkpt>
      <trkpt lat="46.06758" lon="6.72509">
        <ele>988.8</ele>
        <time>2023-08-14T16:51:22Z</time>
      </trkpt>
      <trkpt lat="46.06762" lon="6.72508">
        <ele>987.3</ele>
        <time>2023-08-14T16:51:26Z</time>
      </trkpt>
      <trkpt lat="46.06768" lon="6.72506">
        <ele>985.4</ele>
        <time>2023-08-14T16:51:31Z</time>
      </trkpt>
      <trkpt lat="46.06771" lon="6.72503">
        <ele>984.3</ele>
        <time>2023-08-14T16:51:34Z</time>
      </trkpt>
      <trkpt lat="46.0678" lon="6.725">
        <ele>981.1</ele>
        <time>2023-08-14T16:51:41Z</time>
      </trkpt>
      <trkpt lat="46.06786" lon="6.72506">
        <ele>978.6</ele>
        <time>2023-08-14T16:51:47Z</time>
      </trkpt>
      <trkpt lat="46.06805" lon="6.72497">
        <ele>972.5</ele>
        <time>2023-08-14T16:51:58Z</time>
      </trkpt>
      <trkpt lat="46.06808" lon="6.72492">
        <ele>970.9</ele>
        <time>2023-08-14T16:52:01Z</time>
      </trkpt>
      <trkpt lat="46.06812" lon="6.72485">
        <ele>969</ele>
        <time>2023-08-14T16:52:05Z</time>
      </trkpt>
      <trkpt lat="46.06814" lon="6.72488">
        <ele>968</ele>
        <time>2023-08-14T16:52:08Z</time>
      </trkpt>
      <trkpt lat="46.06818" lon="6.72494">
        <ele>966.2</ele>
        <time>2023-08-14T16:52:13Z</time>
      </trkpt>
      <trkpt lat="46.06823" lon="6.72506">
        <ele>963.1</ele>
        <time>2023-08-14T16:52:21Z</time>
      </trkpt>
      <trkpt lat="46.06824" lon="6.72508">
        <ele>962.5</ele>
        <time>2023-08-14T16:52:23Z</time>
      </trkpt>
      <trkpt lat="46.06827" lon="6.72507">
        <ele>961.6</ele>
        <time>2023-08-14T16:52:25Z</time>
      </trkpt>
      <trkpt lat="46.0684" lon="6.7249">
        <ele>955.8</ele>
        <time>2023-08-14T16:52:38Z</time>
      </trkpt>
      <trkpt lat="46.06844" lon="6.7249">
        <ele>954.8</ele>
        <time>2023-08-14T16:52:40Z</time>
      </trkpt>
      <trkpt lat="46.06858" lon="6.72503">
        <ele>949.4</ele>
        <time>2023-08-14T16:52:52Z</time>
      </trkpt>
      <trkpt lat="46.06862" lon="6.72502">
        <ele>948.1</ele>
        <time>2023-08-14T16:52:55Z</time>
      </trkpt>
      <trkpt lat="46.06876" lon="6.72485">
        <ele>942.6</ele>
        <time>2023-08-14T16:53:03Z</time>
      </trkpt>
      <trkpt lat="46.06883" lon="6.72471">
        <ele>939.3</ele>
        <time>2023-08-14T16:53:13Z</time>
      </trkpt>
      <trkpt lat="46.06902" lon="6.72467">
        <ele>933.6</ele>
        <time>2023-08-14T16:53:24Z</time>
      </trkpt>
      <trkpt lat="46.0692" lon="6.72467">
        <ele>929.3</ele>
        <time>2023-08-14T16:53:34Z</time>
      </trkpt>
      <trkpt lat="46.06941" lon="6.72465">
        <ele>925.5</ele>
        <time>2023-08-14T16:53:42Z</time>
      </trkpt>
      <trkpt lat="46.0696" lon="6.72461">
        <ele>922.9</ele>
        <time>2023-08-14T16:53:52Z</time>
      </trkpt>
      <trkpt lat="46.06979" lon="6.72466">
        <ele>919.6</ele>
        <time>2023-08-14T16:54:06Z</time>
      </trkpt>
      <trkpt lat="46.06999" lon="6.72474">
        <ele>914.1</ele>
        <time>2023-08-14T16:54:15Z</time>
      </trkpt>
      <trkpt lat="46.07016" lon="6.7249">
        <ele>909.3</ele>
        <time>2023-08-14T16:54:24Z</time>
      </trkpt>
      <trkpt lat="46.07017" lon="6.72493">
        <ele>908.8</ele>
        <time>2023-08-14T16:54:25Z</time>
      </trkpt>
      <trkpt lat="46.07042" lon="6.72507">
        <ele>904.6</ele>
        <time>2023-08-14T16:54:56Z</time>
      </trkpt>
      <trkpt lat="46.07044" lon="6.72507">
        <ele>904.3</ele>
        <time>2023-08-14T16:54:58Z</time>
      </trkpt>
      <trkpt lat="46.07049" lon="6.72518">
        <ele>902.8</ele>
        <time>2023-08-14T16:55:04Z</time>
      </trkpt>
      <trkpt lat="46.07052" lon="6.72544">
        <ele>899</ele>
        <time>2023-08-14T16:55:14Z</time>
      </trkpt>
      <trkpt lat="46.07051" lon="6.72557">
        <ele>897</ele>
        <time>2023-08-14T16:55:20Z</time>
      </trkpt>
      <trkpt lat="46.07049" lon="6.72565">
        <ele>895.9</ele>
        <time>2023-08-14T16:55:24Z</time>
      </trkpt>
      <trkpt lat="46.0705" lon="6.72574">
        <ele>894.7</ele>
        <time>2023-08-14T16:55:30Z</time>
      </trkpt>
      <trkpt lat="46.07064" lon="6.72568">
        <ele>888</ele>
        <time>2023-08-14T16:55:39Z</time>
      </trkpt>
      <trkpt lat="46.07066" lon="6.72572">
        <ele>882.3</ele>
        <time>2023-08-14T16:55:42Z</time>
      </trkpt>
      <trkpt lat="46.07067" lon="6.72593">
        <ele>879.2</ele>
        <time>2023-08-14T16:55:54Z</time>
      </trkpt>
      <trkpt lat="46.07068" lon="6.72593">
        <ele>879.1</ele>
        <time>2023-08-14T16:55:57Z</time>
      </trkpt>
      <trkpt lat="46.07083" lon="6.72578">
        <ele>877</ele>
        <time>2023-08-14T16:56:06Z</time>
      </trkpt>
      <trkpt lat="46.07093" lon="6.72557">
        <ele>875.3</ele>
        <time>2023-08-14T16:56:14Z</time>
      </trkpt>
      <trkpt lat="46.07105" lon="6.72534">
        <ele>872.2</ele>
        <time>2023-08-14T16:56:23Z</time>
      </trkpt>
      <trkpt lat="46.07108" lon="6.72505">
        <ele>868.4</ele>
        <time>2023-08-14T16:56:33Z</time>
      </trkpt>
      <trkpt lat="46.07102" lon="6.72477">
        <ele>864</ele>
        <time>2023-08-14T16:56:41Z</time>
      </trkpt>
      <trkpt lat="46.07098" lon="6.7245">
        <ele>860</ele>
        <time>2023-08-14T16:56:51Z</time>
      </trkpt>
      <trkpt lat="46.0709" lon="6.72425">
        <ele>856.9</ele>
        <time>2023-08-14T16:56:58Z</time>
      </trkpt>
      <trkpt lat="46.07075" lon="6.72404">
        <ele>853</ele>
        <time>2023-08-14T16:57:05Z</time>
      </trkpt>
      <trkpt lat="46.07069" lon="6.72378">
        <ele>848.3</ele>
        <time>2023-08-14T16:57:13Z</time>
      </trkpt>
      <trkpt lat="46.07066" lon="6.72351">
        <ele>843.5</ele>
        <time>2023-08-14T16:57:21Z</time>
      </trkpt>
      <trkpt lat="46.07064" lon="6.72325">
        <ele>839.1</ele>
        <time>2023-08-14T16:57:28Z</time>
      </trkpt>
      <trkpt lat="46.07066" lon="6.72297">
        <ele>835.1</ele>
        <time>2023-08-14T16:57:36Z</time>
      </trkpt>
      <trkpt lat="46.0707" lon="6.72269">
        <ele>831.8</ele>
        <time>2023-08-14T16:57:42Z</time>
      </trkpt>
      <trkpt lat="46.07082" lon="6.72249">
        <ele>830</ele>
        <time>2023-08-14T16:57:46Z</time>
      </trkpt>
      <trkpt lat="46.07085" lon="6.72221">
        <ele>829</ele>
        <time>2023-08-14T16:57:51Z</time>
      </trkpt>
      <trkpt lat="46.07084" lon="6.72195">
        <ele>828.8</ele>
        <time>2023-08-14T16:57:56Z</time>
      </trkpt>
      <trkpt lat="46.07085" lon="6.72169">
        <ele>828.9</ele>
        <time>2023-08-14T16:58:01Z</time>
      </trkpt>
      <trkpt lat="46.07088" lon="6.72141">
        <ele>829.1</ele>
        <time>2023-08-14T16:58:07Z</time>
      </trkpt>
      <trkpt lat="46.07092" lon="6.72116">
        <ele>829.1</ele>
        <time>2023-08-14T16:58:13Z</time>
      </trkpt>
      <trkpt lat="46.07102" lon="6.72091">
        <ele>828.9</ele>
        <time>2023-08-14T16:58:20Z</time>
      </trkpt>
      <trkpt lat="46.07112" lon="6.72068">
        <ele>828.6</ele>
        <time>2023-08-14T16:58:27Z</time>
      </trkpt>
      <trkpt lat="46.07116" lon="6.72042">
        <ele>828.3</ele>
        <time>2023-08-14T16:58:34Z</time>
      </trkpt>
      <trkpt lat="46.07118" lon="6.72016">
        <ele>826.9</ele>
        <time>2023-08-14T16:58:41Z</time>
      </trkpt>
      <trkpt lat="46.07121" lon="6.71987">
        <ele>824.4</ele>
        <time>2023-08-14T16:58:48Z</time>
      </trkpt>
      <trkpt lat="46.07126" lon="6.71958">
        <ele>822.9</ele>
        <time>2023-08-14T16:58:54Z</time>
      </trkpt>
      <trkpt lat="46.0714" lon="6.71936">
        <ele>821.8</ele>
        <time>2023-08-14T16:59:01Z</time>
      </trkpt>
      <trkpt lat="46.07158" lon="6.71928">
        <ele>821.7</ele>
        <time>2023-08-14T16:59:08Z</time>
      </trkpt>
      <trkpt lat="46.07176" lon="6.71922">
        <ele>822.1</ele>
        <time>2023-08-14T16:59:15Z</time>
      </trkpt>
      <trkpt lat="46.07195" lon="6.71921">
        <ele>821.8</ele>
        <time>2023-08-14T16:59:23Z</time>
      </trkpt>
      <trkpt lat="46.07215" lon="6.71923">
        <ele>820.5</ele>
        <time>2023-08-14T16:59:31Z</time>
      </trkpt>
      <trkpt lat="46.07234" lon="6.71918">
        <ele>818.6</ele>
        <time>2023-08-14T16:59:39Z</time>
      </trkpt>
      <trkpt lat="46.07247" lon="6.71921">
        <ele>815.4</ele>
        <time>2023-08-14T16:59:51Z</time>
      </trkpt>
      <trkpt lat="46.07249" lon="6.71924">
        <ele>814.5</ele>
        <time>2023-08-14T16:59:53Z</time>
      </trkpt>
      <trkpt lat="46.07267" lon="6.7193">
        <ele>808.3</ele>
        <time>2023-08-14T17:00:05Z</time>
      </trkpt>
      <trkpt lat="46.07278" lon="6.71933">
        <ele>804.5</ele>
        <time>2023-08-14T17:00:12Z</time>
      </trkpt>
      <trkpt lat="46.07296" lon="6.71938">
        <ele>798.3</ele>
        <time>2023-08-14T17:00:27Z</time>
      </trkpt>
      <trkpt lat="46.07315" lon="6.71935">
        <ele>792.9</ele>
        <time>2023-08-14T17:00:39Z</time>
      </trkpt>
      <trkpt lat="46.07333" lon="6.71926">
        <ele>788.6</ele>
        <time>2023-08-14T17:00:47Z</time>
      </trkpt>
      <trkpt lat="46.07351" lon="6.71921">
        <ele>787</ele>
        <time>2023-08-14T17:00:54Z</time>
      </trkpt>
      <trkpt lat="46.07368" lon="6.71931">
        <ele>784.2</ele>
        <time>2023-08-14T17:01:02Z</time>
      </trkpt>
      <trkpt lat="46.07372" lon="6.71958">
        <ele>781.9</ele>
        <time>2023-08-14T17:01:09Z</time>
      </trkpt>
      <trkpt lat="46.07379" lon="6.71983">
        <ele>779.7</ele>
        <time>2023-08-14T17:01:18Z</time>
      </trkpt>
      <trkpt lat="46.0737" lon="6.72008">
        <ele>777.4</ele>
        <time>2023-08-14T17:01:26Z</time>
      </trkpt>
      <trkpt lat="46.07363" lon="6.72032">
        <ele>775.7</ele>
        <time>2023-08-14T17:01:34Z</time>
      </trkpt>
      <trkpt lat="46.07358" lon="6.72063">
        <ele>774.1</ele>
        <time>2023-08-14T17:01:43Z</time>
      </trkpt>
      <trkpt lat="46.07349" lon="6.72089">
        <ele>772.3</ele>
        <time>2023-08-14T17:01:50Z</time>
      </trkpt>
      <trkpt lat="46.07342" lon="6.72114">
        <ele>769.1</ele>
        <time>2023-08-14T17:02:00Z</time>
      </trkpt>
      <trkpt lat="46.07353" lon="6.72141">
        <ele>763.9</ele>
        <time>2023-08-14T17:02:13Z</time>
      </trkpt>
      <trkpt lat="46.07362" lon="6.72157">
        <ele>760.1</ele>
        <time>2023-08-14T17:02:21Z</time>
      </trkpt>
      <trkpt lat="46.0738" lon="6.72152">
        <ele>754.6</ele>
        <time>2023-08-14T17:02:31Z</time>
      </trkpt>
      <trkpt lat="46.07386" lon="6.72148">
        <ele>752.6</ele>
        <time>2023-08-14T17:02:39Z</time>
      </trkpt>
      <trkpt lat="46.07394" lon="6.72155">
        <ele>749.8</ele>
        <time>2023-08-14T17:02:50Z</time>
      </trkpt>
      <trkpt lat="46.07395" lon="6.72159">
        <ele>748.8</ele>
        <time>2023-08-14T17:02:53Z</time>
      </trkpt>
      <trkpt lat="46.07399" lon="6.72164">
        <ele>747.5</ele>
        <time>2023-08-14T17:02:56Z</time>
      </trkpt>
      <trkpt lat="46.07417" lon="6.72157">
        <ele>742.5</ele>
        <time>2023-08-14T17:03:07Z</time>
      </trkpt>
      <trkpt lat="46.07424" lon="6.72157">
        <ele>740.7</ele>
        <time>2023-08-14T17:03:10Z</time>
      </trkpt>
      <trkpt lat="46.07428" lon="6.72183">
        <ele>736.7</ele>
        <time>2023-08-14T17:03:19Z</time>
      </trkpt>
      <trkpt lat="46.07422" lon="6.72206">
        <ele>732.4</ele>
        <time>2023-08-14T17:03:27Z</time>
      </trkpt>
      <trkpt lat="46.07426" lon="6.72231">
        <ele>725.4</ele>
        <time>2023-08-14T17:03:37Z</time>
      </trkpt>
      <trkpt lat="46.07443" lon="6.72215">
        <ele>723.6</ele>
        <time>2023-08-14T17:03:43Z</time>
      </trkpt>
      <trkpt lat="46.07459" lon="6.72195">
        <ele>722.4</ele>
        <time>2023-08-14T17:03:49Z</time>
      </trkpt>
      <trkpt lat="46.07476" lon="6.72179">
        <ele>721.4</ele>
        <time>2023-08-14T17:03:56Z</time>
      </trkpt>
      <trkpt lat="46.07492" lon="6.72166">
        <ele>719.8</ele>
        <time>2023-08-14T17:04:03Z</time>
      </trkpt>
      <trkpt lat="46.07503" lon="6.72145">
        <ele>717.4</ele>
        <time>2023-08-14T17:04:12Z</time>
      </trkpt>
      <trkpt lat="46.0752" lon="6.72134">
        <ele>715</ele>
        <time>2023-08-14T17:04:18Z</time>
      </trkpt>
      <trkpt lat="46.07533" lon="6.72116">
        <ele>712.8</ele>
        <time>2023-08-14T17:04:24Z</time>
      </trkpt>
      <trkpt lat="46.07547" lon="6.72096">
        <ele>710.4</ele>
        <time>2023-08-14T17:04:31Z</time>
      </trkpt>
      <trkpt lat="46.07553" lon="6.7207">
        <ele>708</ele>
        <time>2023-08-14T17:04:37Z</time>
      </trkpt>
      <trkpt lat="46.07556" lon="6.7204">
        <ele>706.1</ele>
        <time>2023-08-14T17:04:43Z</time>
      </trkpt>
      <trkpt lat="46.07564" lon="6.72015">
        <ele>705</ele>
        <time>2023-08-14T17:04:50Z</time>
      </trkpt>
      <trkpt lat="46.07572" lon="6.71991">
        <ele>704.6</ele>
        <time>2023-08-14T17:04:57Z</time>
      </trkpt>
      <trkpt lat="46.07574" lon="6.71965">
        <ele>704.4</ele>
        <time>2023-08-14T17:05:05Z</time>
      </trkpt>
      <trkpt lat="46.07581" lon="6.71939">
        <ele>704</ele>
        <time>2023-08-14T17:05:15Z</time>
      </trkpt>
      <trkpt lat="46.07587" lon="6.71912">
        <ele>703</ele>
        <time>2023-08-14T17:05:23Z</time>
      </trkpt>
      <trkpt lat="46.07594" lon="6.71885">
        <ele>701.9</ele>
        <time>2023-08-14T17:05:30Z</time>
      </trkpt>
      <trkpt lat="46.07596" lon="6.71859">
        <ele>701.4</ele>
        <time>2023-08-14T17:05:36Z</time>
      </trkpt>
      <trkpt lat="46.07599" lon="6.71849">
        <ele>701.3</ele>
        <time>2023-08-14T17:05:40Z</time>
      </trkpt>
      <trkpt lat="46.07617" lon="6.71855">
        <ele>701.3</ele>
        <time>2023-08-14T17:05:49Z</time>
      </trkpt>
      <trkpt lat="46.07633" lon="6.71869">
        <ele>701.2</ele>
        <time>2023-08-14T17:05:57Z</time>
      </trkpt>
      <trkpt lat="46.07645" lon="6.71878">
        <ele>701</ele>
        <time>2023-08-14T17:06:06Z</time>
      </trkpt>
      <trkpt lat="46.07663" lon="6.71873">
        <ele>700.1</ele>
        <time>2023-08-14T17:06:14Z</time>
      </trkpt>
      <trkpt lat="46.07684" lon="6.71876">
        <ele>699.7</ele>
        <time>2023-08-14T17:06:22Z</time>
      </trkpt>
      <trkpt lat="46.07702" lon="6.71873">
        <ele>699.1</ele>
        <time>2023-08-14T17:06:29Z</time>
      </trkpt>
      <trkpt lat="46.07721" lon="6.71879">
        <ele>697.4</ele>
        <time>2023-08-14T17:06:38Z</time>
      </trkpt>
      <trkpt lat="46.07735" lon="6.71862">
        <ele>696.9</ele>
        <time>2023-08-14T17:06:45Z</time>
      </trkpt>
      <trkpt lat="46.07736" lon="6.71861">
        <ele>696.9</ele>
        <time>2023-08-14T17:06:46Z</time>
      </trkpt>
    </trkseg>
  </trk>
</gpx>